Decoded Metar for KGSO (GREENSBORO in NC, USA) (IATA:GSO) | Meteo·Mobile Aviation Weather
aviador You're here:

KGSO Decoded Metar

GREENSBORO in NC, USA
Report Time2019-02-17 15:42:00
UTC Time2019-02-17 16:00:52
Flight Rules mvfr MVFR
Wind360° at 06 kt
W.Decomp.*RWY 05: 4.5 kt HW 4 kt LCW
RWY 32: 4.0 kt HW 4.5 kt RCW
Visibility9999 m
Phenomena:Light Rain
Clouds:Overcast 028 Hf
Expected CloudBase > 1,200 ft AGL from Temp-Dew spread
Ceiling2,800 ft
Temp02°C (ISA -11)
Dew Point-1°C (81% RH)
AAT-2.3°C
QNH1019 hPa
Density Alt-581 ft
Elevation902 ft
Report Wrong Elevation
Raw Report
KGSO 171542Z 36006KT 7SM -RA OVC028 02/M01 A3010=

Extra information for KGSO:More info

Metar Taf Metar & Taf Last 4 Metars F.Rules Stats Wind Profile Meteogram Temp Stats Airport Information Weather charts Add Link Nearby VenuesMetar ALERT Operation Metar Decoded Social comments

AIRNAV info for KGSO